createdAt,value
2023-03-26T00:02:13.028Z,1.55
2023-03-26T00:04:42.650Z,1.65
2023-03-26T00:07:10.986Z,5.25
2023-03-26T00:09:39.284Z,2.90
2023-03-26T00:12:09.041Z,4.60
2023-03-26T00:14:37.530Z,1.27
2023-03-26T00:17:06.124Z,2.75
2023-03-26T00:19:35.003Z,6.68
2023-03-26T00:22:03.799Z,6.03
2023-03-26T00:24:32.161Z,2.45
2023-03-26T00:27:01.072Z,3.70
2023-03-26T00:29:33.266Z,6.22
2023-03-26T00:32:01.823Z,5.05
2023-03-26T00:34:30.945Z,5.85
2023-03-26T00:37:02.586Z,4.15
2023-03-26T00:39:35.720Z,4.95
2023-03-26T00:42:07.292Z,4.25
2023-03-26T00:44:36.931Z,7.93
2023-03-26T00:47:05.715Z,11.38
2023-03-26T00:49:34.216Z,11.05
2023-03-26T00:52:03.139Z,9.48
2023-03-26T00:54:31.926Z,7.30
2023-03-26T00:57:00.185Z,9.63
2023-03-26T00:59:30.338Z,9.32
2023-03-26T01:02:00.259Z,6.90
2023-03-26T01:04:31.874Z,8.45
2023-03-26T01:07:10.637Z,9.63
2023-03-26T01:09:42.790Z,8.15
2023-03-26T01:12:17.245Z,3.85
2023-03-26T01:14:45.998Z,8.57
2023-03-26T01:17:15.978Z,5.60
2023-03-26T01:19:49.837Z,5.70
2023-03-26T01:22:21.290Z,5.53
2023-03-26T01:24:56.197Z,5.57
2023-03-26T01:27:32.341Z,5.00
2023-03-26T01:30:08.339Z,7.63
2023-03-26T01:32:49.529Z,7.30
2023-03-26T01:35:40.192Z,4.95
2023-03-26T01:38:24.132Z,2.85
2023-03-26T01:40:58.709Z,5.47
2023-03-26T01:43:35.780Z,8.20
2023-03-26T01:46:08.075Z,3.58
2023-03-26T01:48:38.554Z,2.90
2023-03-26T01:51:08.496Z,4.85
2023-03-26T01:53:42.242Z,4.35
2023-03-26T01:56:19.538Z,3.50
2023-03-26T01:59:02.018Z,4.28
2023-03-26T02:01:36.894Z,3.30
2023-03-26T02:04:12.289Z,3.08
2023-03-26T02:06:46.151Z,2.10
2023-03-26T02:09:18.505Z,3.80
2023-03-26T02:11:49.602Z,3.53
2023-03-26T02:14:18.386Z,3.35
2023-03-26T02:16:47.970Z,3.30
2023-03-26T02:19:21.463Z,1.33
2023-03-26T02:21:51.338Z,5.85
2023-03-26T02:24:21.262Z,5.18
2023-03-26T02:26:50.984Z,6.40
2023-03-26T02:29:20.562Z,2.70
2023-03-26T02:31:49.630Z,3.20
2023-03-26T02:34:19.865Z,2.70
2023-03-26T02:36:48.249Z,2.30
2023-03-26T02:39:18.853Z,4.03
2023-03-26T02:41:47.457Z,3.78
2023-03-26T02:44:17.133Z,4.88
2023-03-26T02:46:45.625Z,4.63
2023-03-26T02:49:14.076Z,5.53
2023-03-26T02:51:42.442Z,4.00
2023-03-26T02:54:10.916Z,2.35
2023-03-26T02:56:39.591Z,3.28
2023-03-26T02:59:08.251Z,2.65
2023-03-26T03:01:43.108Z,1.75
2023-03-26T03:04:11.710Z,3.33
2023-03-26T03:06:41.333Z,4.53
2023-03-26T03:09:13.113Z,3.22
2023-03-26T03:11:41.987Z,1.75
2023-03-26T03:14:10.614Z,1.20
2023-03-26T03:16:41.265Z,2.70
2023-03-26T03:19:10.708Z,2.85
2023-03-26T03:21:39.354Z,4.85
2023-03-26T03:24:09.053Z,2.97
2023-03-26T03:26:37.750Z,4.40
2023-03-26T03:29:06.868Z,1.88
2023-03-26T03:31:35.010Z,1.80
2023-03-26T03:34:04.686Z,2.03
2023-03-26T03:36:33.605Z,3.40
2023-03-26T03:39:08.870Z,4.72
2023-03-26T03:41:37.112Z,3.25
2023-03-26T03:44:06.125Z,4.55
2023-03-26T03:46:34.523Z,2.70
2023-03-26T03:49:05.141Z,3.15
2023-03-26T03:51:33.523Z,3.88
2023-03-26T03:54:01.968Z,4.47
2023-03-26T03:56:30.271Z,5.63
2023-03-26T03:58:59.673Z,3.65
2023-03-26T04:01:30.784Z,2.75
2023-03-26T04:03:59.369Z,5.45
2023-03-26T04:06:30.229Z,4.10
2023-03-26T04:08:58.722Z,6.45
2023-03-26T04:11:26.991Z,2.97
2023-03-26T04:13:55.397Z,8.88
2023-03-26T04:16:24.004Z,6.00
2023-03-26T04:18:52.539Z,10.82
2023-03-26T04:21:21.148Z,5.38
2023-03-26T04:23:50.803Z,4.93
2023-03-26T04:26:19.934Z,3.80
2023-03-26T04:28:53.451Z,5.50
2023-03-26T04:31:24.607Z,6.63
2023-03-26T04:33:55.932Z,8.25
2023-03-26T04:36:28.652Z,8.63
2023-03-26T04:39:02.459Z,9.75
2023-03-26T04:41:32.442Z,9.40
2023-03-26T04:44:02.044Z,9.85
2023-03-26T04:46:35.113Z,7.97
2023-03-26T04:49:04.104Z,11.40
2023-03-26T04:51:39.305Z,12.52
2023-03-26T04:54:12.642Z,8.13
2023-03-26T04:56:48.649Z,9.93
2023-03-26T04:59:26.573Z,12.55
2023-03-26T05:01:56.923Z,8.48
2023-03-26T05:04:26.750Z,12.43
2023-03-26T05:06:55.207Z,9.85
2023-03-26T05:09:25.353Z,11.07
2023-03-26T05:11:54.264Z,13.30
2023-03-26T05:14:22.521Z,11.60
2023-03-26T05:16:53.410Z,9.90
2023-03-26T05:19:22.314Z,11.70
2023-03-26T05:21:50.858Z,10.82
2023-03-26T05:24:20.072Z,9.65
2023-03-26T05:26:50.457Z,12.50
2023-03-26T05:29:20.847Z,15.95
2023-03-26T05:31:49.266Z,9.77
2023-03-26T05:34:18.313Z,11.18
2023-03-26T05:36:46.705Z,15.32
2023-03-26T05:39:15.325Z,16.60
2023-03-26T05:41:43.610Z,8.63
2023-03-26T05:44:13.472Z,16.20
2023-03-26T05:46:41.741Z,15.27
2023-03-26T05:49:10.165Z,13.75
2023-03-26T05:51:38.715Z,16.35
2023-03-26T05:54:07.136Z,8.52
2023-03-26T05:56:36.147Z,10.13
2023-03-26T05:59:04.450Z,15.77
2023-03-26T06:01:37.568Z,13.20
2023-03-26T06:04:06.154Z,9.68
2023-03-26T06:06:35.757Z,10.23
2023-03-26T06:09:05.654Z,11.73
2023-03-26T06:11:34.335Z,10.90
2023-03-26T06:14:02.666Z,12.60
2023-03-26T06:16:30.944Z,21.25
2023-03-26T06:19:00.682Z,12.02
2023-03-26T06:21:31.789Z,12.65
2023-03-26T06:24:00.478Z,10.20
2023-03-26T06:26:29.381Z,16.25
2023-03-26T06:28:57.733Z,11.00
2023-03-26T06:31:26.417Z,10.43
2023-03-26T06:34:00.736Z,15.73
2023-03-26T06:36:30.744Z,16.90
2023-03-26T06:38:59.173Z,19.35
2023-03-26T06:41:27.706Z,11.82
2023-03-26T06:43:56.044Z,14.23
2023-03-26T06:46:25.541Z,13.57
2023-03-26T06:48:54.216Z,20.38
2023-03-26T06:51:22.515Z,23.70
2023-03-26T06:53:52.244Z,24.25
2023-03-26T06:56:20.436Z,16.40
2023-03-26T06:58:48.810Z,20.17
2023-03-26T07:01:17.123Z,19.38
2023-03-26T07:03:45.498Z,19.63
2023-03-26T07:06:13.769Z,18.65
2023-03-26T07:08:42.012Z,13.32
2023-03-26T07:11:11.543Z,15.02
2023-03-26T07:13:40.357Z,15.43
2023-03-26T07:16:52.854Z,13.52
2023-03-26T07:19:21.362Z,24.23
2023-03-26T07:21:53.341Z,13.70
2023-03-26T07:24:22.375Z,19.60
2023-03-26T07:27:00.127Z,24.33
2023-03-26T07:29:36.210Z,23.08
2023-03-26T07:32:16.197Z,12.73
2023-03-26T07:35:04.359Z,15.88
2023-03-26T07:38:03.340Z,16.02
2023-03-26T07:40:52.384Z,13.85
2023-03-26T07:43:34.730Z,13.38
2023-03-26T07:46:03.813Z,17.70
2023-03-26T07:48:41.207Z,19.20
2023-03-26T07:51:11.448Z,16.65
2023-03-26T07:53:40.454Z,13.38
2023-03-26T07:56:15.690Z,11.07
2023-03-26T07:59:00.942Z,17.23
2023-03-26T08:01:46.702Z,20.77
2023-03-26T08:04:46.030Z,18.77
2023-03-26T08:07:23.250Z,17.20
2023-03-26T08:10:01.520Z,24.73
2023-03-26T08:12:38.143Z,17.00
2023-03-26T08:15:19.422Z,19.30
2023-03-26T08:17:54.007Z,14.70
2023-03-26T08:20:34.674Z,16.38
2023-03-26T08:23:15.498Z,18.08
2023-03-26T08:25:53.791Z,15.00
2023-03-26T08:28:44.790Z,12.93
2023-03-26T08:31:16.317Z,13.07
2023-03-26T08:33:45.166Z,13.35
2023-03-26T08:36:13.461Z,22.25
2023-03-26T08:38:41.930Z,16.80
2023-03-26T08:41:47.548Z,12.82
2023-03-26T08:44:49.276Z,10.82
2023-03-26T08:47:48.073Z,10.75
2023-03-26T08:50:49.476Z,14.43
2023-03-26T08:53:52.962Z,18.35
2023-03-26T08:56:28.489Z,11.10
2023-03-26T08:59:27.893Z,14.82
2023-03-26T09:02:32.282Z,13.02
2023-03-26T09:05:37.311Z,20.25
2023-03-26T09:08:53.638Z,15.75
2023-03-26T09:12:02.060Z,13.02
2023-03-26T09:15:04.194Z,12.98
2023-03-26T09:18:14.340Z,10.35
2023-03-26T09:21:21.444Z,17.25
2023-03-26T09:24:33.546Z,21.00
2023-03-26T09:27:09.236Z,15.05
2023-03-26T09:30:31.660Z,26.20
2023-03-26T09:33:21.347Z,10.88
2023-03-26T09:36:07.412Z,18.83
2023-03-26T09:38:45.515Z,19.38
2023-03-26T09:41:19.033Z,16.70
2023-03-26T09:44:13.565Z,14.45
2023-03-26T09:46:51.364Z,17.80
2023-03-26T09:50:06.994Z,9.98
2023-03-26T09:53:01.400Z,13.43
2023-03-26T09:55:46.008Z,12.25
2023-03-26T09:58:42.157Z,11.23
2023-03-26T10:01:16.444Z,16.08
2023-03-26T10:03:59.437Z,18.90
2023-03-26T10:06:45.945Z,15.63
2023-03-26T10:09:37.208Z,17.15
2023-03-26T10:12:22.256Z,20.65
2023-03-26T10:15:02.346Z,14.82
2023-03-26T10:17:44.837Z,18.52
2023-03-26T10:20:39.303Z,11.02
2023-03-26T10:23:26.081Z,14.48
2023-03-26T10:26:14.506Z,12.32
2023-03-26T10:29:08.439Z,13.45
2023-03-26T10:31:52.575Z,13.07
2023-03-26T10:34:40.039Z,15.52
2023-03-26T10:37:11.636Z,15.60
2023-03-26T10:40:00.262Z,10.45
2023-03-26T10:43:04.006Z,14.73
2023-03-26T10:45:42.097Z,11.63
2023-03-26T10:48:28.886Z,8.93
2023-03-26T10:51:23.759Z,10.32
2023-03-26T10:53:57.985Z,12.90
2023-03-26T10:56:29.680Z,9.52
2023-03-26T10:58:58.558Z,12.85
2023-03-26T11:01:40.466Z,15.65
2023-03-26T11:04:25.691Z,6.78
2023-03-26T11:07:10.120Z,10.30
2023-03-26T11:09:45.806Z,10.32
2023-03-26T11:12:26.584Z,8.50
2023-03-26T11:15:14.863Z,8.45
2023-03-26T11:17:57.543Z,8.70
2023-03-26T11:20:33.978Z,5.95
2023-03-26T11:23:19.949Z,10.10
2023-03-26T11:26:12.321Z,8.35
2023-03-26T11:29:31.305Z,11.15
2023-03-26T11:32:08.024Z,11.10
2023-03-26T11:34:41.637Z,6.80
2023-03-26T11:37:18.186Z,9.38
2023-03-26T11:39:52.408Z,7.28
2023-03-26T11:42:25.770Z,11.30
2023-03-26T11:44:57.217Z,6.35
2023-03-26T11:47:32.228Z,6.95
2023-03-26T11:50:05.272Z,8.10
2023-03-26T11:52:33.818Z,8.05
2023-03-26T11:55:03.234Z,10.63
2023-03-26T11:57:35.374Z,8.27
2023-03-26T12:00:15.839Z,7.60
2023-03-26T12:02:45.609Z,9.27
2023-03-26T12:05:19.487Z,10.45
2023-03-26T12:07:55.929Z,5.60
2023-03-26T12:10:32.282Z,9.23
2023-03-26T12:13:03.603Z,10.75
2023-03-26T12:15:32.666Z,12.77
2023-03-26T12:18:22.057Z,11.70
2023-03-26T12:21:05.459Z,5.90
2023-03-26T12:23:51.920Z,9.23
2023-03-26T12:26:22.049Z,7.53
2023-03-26T12:28:52.094Z,8.02
2023-03-26T12:31:20.956Z,10.85
2023-03-26T12:34:08.293Z,7.93
2023-03-26T12:36:38.958Z,7.93
2023-03-26T12:40:07.911Z,1.60
2023-03-26T12:44:43.051Z,1.88
2023-03-26T12:45:17.382Z,3.08
2023-03-26T12:48:01.349Z,7.05
2023-03-26T12:50:46.513Z,4.20
2023-03-26T12:53:46.167Z,4.35
2023-03-26T12:56:22.081Z,2.90
2023-03-26T12:59:15.950Z,4.82
2023-03-26T13:01:53.287Z,2.10
2023-03-26T13:04:58.403Z,2.05
2023-03-26T13:07:48.400Z,4.95
2023-03-26T13:10:41.133Z,4.47
2023-03-26T13:13:24.245Z,4.40
2023-03-26T13:15:53.833Z,4.28
2023-03-26T13:18:32.938Z,3.80
2023-03-26T13:21:09.326Z,5.00
2023-03-26T13:23:45.456Z,4.20
2023-03-26T13:26:27.692Z,1.98
2023-03-26T13:29:08.998Z,5.22
2023-03-26T13:31:44.339Z,2.65
2023-03-26T13:34:19.933Z,1.92
2023-03-26T13:36:59.849Z,3.22
2023-03-26T13:39:36.085Z,1.52
2023-03-26T13:42:18.860Z,2.60
2023-03-26T13:45:05.274Z,1.58
2023-03-26T13:47:38.452Z,0.88
2023-03-26T13:50:15.969Z,1.30
2023-03-26T13:52:49.178Z,1.20
2023-03-26T13:55:26.751Z,1.08
2023-03-26T13:58:05.140Z,1.65
2023-03-26T14:00:54.592Z,0.30
2023-03-26T14:03:33.488Z,0.60
2023-03-26T14:06:07.612Z,0.30
2023-03-26T14:08:40.655Z,1.65
2023-03-26T14:11:12.681Z,0.60
2023-03-26T14:13:50.971Z,0.95
2023-03-26T14:16:24.004Z,0.43
2023-03-26T14:18:59.270Z,1.55
2023-03-26T14:21:42.379Z,1.30
2023-03-26T14:24:36.507Z,0.60
2023-03-26T14:27:25.813Z,0.60
2023-03-26T14:30:06.642Z,0.45
2023-03-26T14:32:55.353Z,0.73
2023-03-26T14:35:37.847Z,1.58
2023-03-26T14:38:33.930Z,1.30
2023-03-26T14:41:21.122Z,1.00
2023-03-26T14:44:47.732Z,0.68
2023-03-26T14:47:21.379Z,1.00
2023-03-26T14:50:26.609Z,1.35
2023-03-26T14:53:01.466Z,0.98
2023-03-26T14:56:04.169Z,1.42
2023-03-26T14:59:01.695Z,0.47
2023-03-26T15:01:44.455Z,0.68
2023-03-26T15:04:48.300Z,1.15
2023-03-26T15:07:45.863Z,0.88
2023-03-26T15:10:59.613Z,1.13
2023-03-26T15:13:57.071Z,0.40
2023-03-26T15:17:08.290Z,0.68
2023-03-26T15:20:16.589Z,0.45
2023-03-26T15:23:24.095Z,1.10
2023-03-26T15:26:25.730Z,0.55
2023-03-26T15:29:28.173Z,0.65
2023-03-26T15:32:32.026Z,0.75
2023-03-26T15:35:32.046Z,1.05
2023-03-26T15:38:44.275Z,0.47
2023-03-26T15:41:18.548Z,1.65
2023-03-26T15:44:24.138Z,1.15
2023-03-26T15:47:16.793Z,0.32
2023-03-26T15:49:50.065Z,0.55
2023-03-26T15:52:27.005Z,0.47
2023-03-26T15:55:05.310Z,0.20
2023-03-26T15:57:41.167Z,0.47
2023-03-26T16:00:31.915Z,0.50
2023-03-26T16:03:20.705Z,0.60
2023-03-26T16:06:21.033Z,0.30
2023-03-26T16:09:00.490Z,0.38
2023-03-26T16:11:56.935Z,0.50
2023-03-26T16:14:43.995Z,0.93
2023-03-26T16:17:18.492Z,0.95
2023-03-26T16:19:53.099Z,1.08
2023-03-26T16:22:56.059Z,1.10
2023-03-26T16:25:30.892Z,6.65
2023-03-26T16:28:33.646Z,3.30
2023-03-26T16:31:36.932Z,2.25
2023-03-26T16:34:28.778Z,1.13
2023-03-26T16:37:00.611Z,1.63
2023-03-26T16:39:43.666Z,3.05
2023-03-26T16:42:36.093Z,1.17
2023-03-26T16:45:22.457Z,1.52
2023-03-26T16:48:01.563Z,0.80
2023-03-26T16:50:42.320Z,1.05
2023-03-26T16:53:24.488Z,1.02
2023-03-26T16:55:58.701Z,0.93
2023-03-26T16:58:36.234Z,1.25
2023-03-26T17:01:22.485Z,1.23
2023-03-26T17:03:59.082Z,0.70
2023-03-26T17:06:29.565Z,0.82
2023-03-26T17:09:05.063Z,0.95
2023-03-26T17:11:46.333Z,1.05
2023-03-26T17:14:34.744Z,2.65
2023-03-26T17:17:18.985Z,0.75
2023-03-26T17:19:56.411Z,2.08
2023-03-26T17:22:37.089Z,0.63
2023-03-26T17:25:20.897Z,1.00
2023-03-26T17:27:58.245Z,1.52
2023-03-26T17:31:04.277Z,1.00
2023-03-26T17:33:36.731Z,0.80
2023-03-26T17:36:31.108Z,1.48
2023-03-26T17:39:22.104Z,1.40
2023-03-26T17:41:56.498Z,0.52
2023-03-26T17:44:41.462Z,0.80
2023-03-26T17:47:37.725Z,1.20
2023-03-26T17:50:15.532Z,0.60
2023-03-26T17:52:50.615Z,2.95
2023-03-26T17:55:23.137Z,2.17
2023-03-26T17:57:57.615Z,2.33
2023-03-26T18:00:29.821Z,0.90
2023-03-26T18:03:01.411Z,2.15
2023-03-26T18:05:32.445Z,2.38
2023-03-26T18:08:40.768Z,1.88
2023-03-26T18:11:38.147Z,1.95
2023-03-26T18:14:37.377Z,1.58
2023-03-26T18:17:06.795Z,2.70
2023-03-26T18:19:48.296Z,1.02
2023-03-26T18:22:23.662Z,1.08
2023-03-26T18:24:53.557Z,1.25
2023-03-26T18:27:24.269Z,1.52
2023-03-26T18:30:16.119Z,1.58
2023-03-26T18:32:52.476Z,2.15
2023-03-26T18:35:23.301Z,3.08
2023-03-26T18:37:56.090Z,2.85
2023-03-26T18:40:25.968Z,2.13
2023-03-26T18:42:56.666Z,2.70
2023-03-26T18:45:28.924Z,1.70
2023-03-26T18:47:59.740Z,1.38
2023-03-26T18:50:29.991Z,3.28
2023-03-26T18:53:01.222Z,1.40
2023-03-26T18:55:30.834Z,3.85
2023-03-26T18:57:59.753Z,2.35
2023-03-26T19:00:30.549Z,6.65
2023-03-26T19:03:05.982Z,8.13
2023-03-26T19:05:36.105Z,8.57
2023-03-26T19:08:08.546Z,9.90
2023-03-26T19:10:38.258Z,14.18
2023-03-26T19:13:06.607Z,14.60
2023-03-26T19:15:36.635Z,14.80
2023-03-26T19:18:10.234Z,9.02
2023-03-26T19:20:42.415Z,10.65
2023-03-26T19:23:16.378Z,10.48
2023-03-26T19:25:48.653Z,10.43
2023-03-26T19:28:25.089Z,8.73
2023-03-26T19:30:58.435Z,16.05
2023-03-26T19:33:34.860Z,14.80
2023-03-26T19:36:05.917Z,11.13
2023-03-26T19:38:45.162Z,7.80
2023-03-26T19:41:23.072Z,12.57
2023-03-26T19:43:52.591Z,12.73
2023-03-26T19:46:25.993Z,18.38
2023-03-26T19:48:55.569Z,13.45
2023-03-26T19:51:26.272Z,10.02
2023-03-26T19:53:59.108Z,17.90
2023-03-26T19:56:28.842Z,16.50
2023-03-26T19:58:58.298Z,11.82
2023-03-26T20:01:28.376Z,24.77
2023-03-26T20:03:59.229Z,12.10
2023-03-26T20:06:41.853Z,11.82
2023-03-26T20:09:14.078Z,21.40
2023-03-26T20:11:43.299Z,17.63
2023-03-26T20:14:15.638Z,11.77
2023-03-26T20:16:45.684Z,19.67
2023-03-26T20:19:14.984Z,16.20
2023-03-26T20:21:44.795Z,16.02
2023-03-26T20:24:17.226Z,15.05
2023-03-26T20:26:47.222Z,19.13
2023-03-26T20:29:16.573Z,14.45
2023-03-26T20:31:46.008Z,19.48
2023-03-26T20:34:17.971Z,11.90
2023-03-26T20:36:47.429Z,16.17
2023-03-26T20:39:18.354Z,13.27
2023-03-26T20:41:48.634Z,15.63
2023-03-26T20:44:18.862Z,19.88
2023-03-26T20:46:49.316Z,13.15
2023-03-26T20:49:18.218Z,11.15
2023-03-26T20:51:47.967Z,15.52
2023-03-26T20:54:23.145Z,9.95
2023-03-26T20:56:52.513Z,12.48
2023-03-26T20:59:26.400Z,12.35
2023-03-26T21:01:56.560Z,13.48
2023-03-26T21:04:26.571Z,10.65
2023-03-26T21:07:00.299Z,12.10
2023-03-26T21:09:37.910Z,18.02
2023-03-26T21:12:08.118Z,13.82
2023-03-26T21:14:40.340Z,17.17
2023-03-26T21:17:14.552Z,15.82
2023-03-26T21:19:43.695Z,16.38
2023-03-26T21:22:25.880Z,17.90
2023-03-26T21:25:06.023Z,20.00
2023-03-26T21:27:44.637Z,14.10
2023-03-26T21:30:16.294Z,17.90
2023-03-26T21:32:46.308Z,17.33
2023-03-26T21:35:16.359Z,13.45
2023-03-26T21:37:48.518Z,14.65
2023-03-26T21:40:19.878Z,13.35
2023-03-26T21:42:50.523Z,19.13
2023-03-26T21:45:20.639Z,11.65
2023-03-26T21:47:50.775Z,11.38
2023-03-26T21:50:21.782Z,7.47
2023-03-26T21:52:51.270Z,16.75
2023-03-26T21:55:22.693Z,17.42
2023-03-26T21:58:05.148Z,10.32
2023-03-26T22:00:44.659Z,17.15
2023-03-26T22:03:21.479Z,17.23
2023-03-26T22:05:59.334Z,7.82
2023-03-26T22:08:34.505Z,14.77
2023-03-26T22:11:06.111Z,14.55
2023-03-26T22:14:15.376Z,11.20
2023-03-26T22:16:50.823Z,8.35
2023-03-26T22:19:23.641Z,16.95
2023-03-26T22:21:52.208Z,14.02
2023-03-26T22:24:21.380Z,16.30
2023-03-26T22:26:51.138Z,7.65
2023-03-26T22:29:19.447Z,15.73
2023-03-26T22:31:47.869Z,10.02
2023-03-26T22:34:16.748Z,10.80
2023-03-26T22:36:45.065Z,13.18
2023-03-26T22:39:14.010Z,7.40
2023-03-26T22:41:42.619Z,9.05
2023-03-26T22:44:19.956Z,13.93
2023-03-26T22:46:51.288Z,13.55
2023-03-26T22:49:22.864Z,7.28
2023-03-26T22:51:51.547Z,13.10
2023-03-26T22:54:20.120Z,9.25
2023-03-26T22:56:48.488Z,8.73
2023-03-26T22:59:21.037Z,5.85
2023-03-26T23:01:49.785Z,9.80
2023-03-26T23:04:31.263Z,6.10
2023-03-26T23:07:00.756Z,10.70
2023-03-26T23:09:29.618Z,11.18
2023-03-26T23:11:58.192Z,8.38
2023-03-26T23:14:34.915Z,7.47
2023-03-26T23:17:03.678Z,6.70
2023-03-26T23:19:34.065Z,7.70
2023-03-26T23:22:02.848Z,7.88
2023-03-26T23:24:31.358Z,7.32
2023-03-26T23:26:59.623Z,6.93
2023-03-26T23:29:30.052Z,4.05
2023-03-26T23:32:03.022Z,11.75
2023-03-26T23:34:51.938Z,5.80
2023-03-26T23:37:23.908Z,8.63
2023-03-26T23:39:54.670Z,10.50
2023-03-26T23:42:28.641Z,8.38
2023-03-26T23:44:58.256Z,9.82
2023-03-26T23:47:34.962Z,5.18
2023-03-26T23:50:03.519Z,6.05
2023-03-26T23:52:32.486Z,11.95
2023-03-26T23:55:01.083Z,7.43
2023-03-26T23:57:30.559Z,4.30
2023-03-26T23:59:59.514Z,7.50
